Strona główna
METAR-TAF:

METAR-TAF

Lotnisko :

Port lotniczy Pontianak-Supadio

Pontianak, Indonezja

Szerokość geograficzna: 00-09S, Długość geograficzna: 109-24E, wysokość: 3 m

Aktualna obserwacja pogody

Raport powstał 23 godziny i 16 minut temu, godzina 00:30 UTC
Cisza
Temperatura 25°C
Wilgotność 94%
Ciśnienie 1012 hPa
Widzialność 10 km lub więcej
Rozproszone chmury na wysokości 1000 ft

METAR: WIOO 230030Z 00000KT 9999 SCT010 25/24 Q1012 NOSIG

czas: 06:46 (23:46 UTC)


TAF: brakujący

Obserwacja i prognoza pogody dla ponad 4000 lotnisk (raport METAR i TAF).

Dostępne stacje oznaczono żółtymi i czerwonymi punktami na mapie.

Najedź kursorem aby zobaczyć nazwę stacji.

Kliknij aby zobaczyć obserwacje i prognozy pogody.

Aby zmienić mapę: kliknij na zielony przycisk z czarnym krzyżykiem, aby powiększyć; na zielony przycisk z myślnikiem, aby pomniejszyć; na zielone strzałki, aby przejść do map sąsiednich.


METAR-TAF: